createdAt,value
2018-07-30T00:01:28.194Z,26.11
2018-07-30T00:03:56.710Z,26.09
2018-07-30T00:06:25.201Z,26.07
2018-07-30T00:08:53.652Z,26.06
2018-07-30T00:11:22.160Z,26.03
2018-07-30T00:13:50.650Z,25.99
2018-07-30T00:16:19.216Z,25.95
2018-07-30T00:18:47.825Z,25.94
2018-07-30T00:21:16.452Z,25.93
2018-07-30T00:23:45.195Z,25.95
2018-07-30T00:26:13.661Z,25.95
2018-07-30T00:28:42.109Z,25.94
2018-07-30T00:31:10.615Z,25.93
2018-07-30T00:33:39.048Z,25.90
2018-07-30T00:36:07.689Z,25.89
2018-07-30T00:38:36.306Z,25.86
2018-07-30T00:41:04.904Z,25.83
2018-07-30T00:43:33.800Z,25.81
2018-07-30T00:46:02.872Z,25.80
2018-07-30T00:48:31.557Z,25.79
2018-07-30T00:51:00.277Z,25.79
2018-07-30T00:53:28.849Z,25.78
2018-07-30T00:55:57.391Z,25.78
2018-07-30T00:58:25.884Z,25.77
2018-07-30T01:00:54.478Z,25.78
2018-07-30T01:03:23.057Z,25.79
2018-07-30T01:05:51.506Z,25.77
2018-07-30T01:08:20.135Z,25.77
2018-07-30T01:10:48.645Z,25.78
2018-07-30T01:13:17.141Z,25.76
2018-07-30T01:15:45.705Z,25.75
2018-07-30T01:18:14.328Z,25.74
2018-07-30T01:20:42.861Z,25.72
2018-07-30T01:23:11.398Z,25.71
2018-07-30T01:25:40.044Z,25.69
2018-07-30T01:28:08.521Z,25.67
2018-07-30T01:30:37.513Z,25.67
2018-07-30T01:33:06.084Z,25.65
2018-07-30T01:35:34.956Z,25.62
2018-07-30T01:38:03.439Z,25.61
2018-07-30T01:40:32.010Z,25.61
2018-07-30T01:43:01.007Z,25.58
2018-07-30T01:45:30.100Z,25.55
2018-07-30T01:47:58.505Z,25.52
2018-07-30T01:50:27.022Z,25.48
2018-07-30T01:52:56.305Z,25.44
2018-07-30T01:55:25.149Z,25.40
2018-07-30T01:57:53.632Z,25.39
2018-07-30T02:00:22.149Z,25.35
2018-07-30T02:02:50.830Z,25.31
2018-07-30T02:05:19.846Z,25.28
2018-07-30T02:07:48.796Z,25.24
2018-07-30T02:10:17.273Z,25.21
2018-07-30T02:12:45.709Z,25.17
2018-07-30T02:15:16.593Z,25.13
2018-07-30T02:17:45.380Z,25.11
2018-07-30T02:20:14.022Z,25.10
2018-07-30T02:22:42.858Z,25.04
2018-07-30T02:25:11.364Z,24.97
2018-07-30T02:27:40.027Z,24.97
2018-07-30T02:30:09.714Z,24.98
2018-07-30T02:32:38.134Z,25.00
2018-07-30T02:35:08.495Z,24.98
2018-07-30T02:37:37.205Z,24.97
2018-07-30T02:40:06.696Z,24.98
2018-07-30T02:42:35.512Z,24.99
2018-07-30T02:45:04.631Z,24.99
2018-07-30T02:47:33.316Z,24.99
2018-07-30T02:50:01.912Z,24.98
2018-07-30T02:52:30.893Z,24.98
2018-07-30T02:54:59.353Z,24.97
2018-07-30T02:57:28.007Z,24.97
2018-07-30T02:59:56.494Z,24.96
2018-07-30T03:02:25.045Z,24.95
2018-07-30T03:04:53.616Z,24.93
2018-07-30T03:07:22.101Z,24.93
2018-07-30T03:09:51.295Z,24.92
2018-07-30T03:12:20.254Z,24.91
2018-07-30T03:14:48.680Z,24.89
2018-07-30T03:17:17.353Z,24.85
2018-07-30T03:19:46.146Z,24.84
2018-07-30T03:22:14.734Z,24.83
2018-07-30T03:24:43.623Z,24.83
2018-07-30T03:27:12.392Z,24.83
2018-07-30T03:29:41.283Z,24.81
2018-07-30T03:32:10.011Z,24.81
2018-07-30T03:34:38.646Z,24.79
2018-07-30T03:37:07.695Z,24.78
2018-07-30T03:39:36.420Z,24.76
2018-07-30T03:42:05.231Z,24.73
2018-07-30T03:44:34.140Z,24.73
2018-07-30T03:47:03.200Z,24.73
2018-07-30T03:49:32.138Z,24.73
2018-07-30T03:52:01.304Z,24.71
2018-07-30T03:54:29.830Z,24.70
2018-07-30T03:56:58.631Z,24.68
2018-07-30T03:59:27.332Z,24.65
2018-07-30T04:01:56.616Z,24.64
2018-07-30T04:04:25.443Z,24.63
2018-07-30T04:06:54.534Z,24.64
2018-07-30T04:09:23.594Z,24.64
2018-07-30T04:11:52.339Z,24.62
2018-07-30T04:14:21.178Z,24.62
2018-07-30T04:16:52.944Z,24.61
2018-07-30T04:19:22.689Z,24.62
2018-07-30T04:21:51.682Z,24.62
2018-07-30T04:24:20.647Z,24.62
2018-07-30T04:26:51.211Z,24.61
2018-07-30T04:29:21.059Z,24.60
2018-07-30T04:31:49.969Z,24.60
2018-07-30T04:34:18.862Z,24.59
2018-07-30T04:36:47.773Z,24.60
2018-07-30T04:39:16.856Z,24.60
2018-07-30T04:41:46.052Z,24.56
2018-07-30T04:44:15.226Z,24.55
2018-07-30T04:46:44.233Z,24.58
2018-07-30T04:49:13.271Z,24.58
2018-07-30T04:51:42.115Z,24.59
2018-07-30T04:54:14.832Z,24.61
2018-07-30T04:56:43.698Z,24.61
2018-07-30T04:59:12.707Z,24.59
2018-07-30T05:01:43.005Z,24.58
2018-07-30T05:04:11.727Z,24.61
2018-07-30T05:06:41.407Z,24.66
2018-07-30T05:09:11.249Z,24.71
2018-07-30T05:11:40.227Z,24.74
2018-07-30T05:14:09.024Z,24.78
2018-07-30T05:16:37.950Z,24.86
2018-07-30T05:19:06.685Z,24.95
2018-07-30T05:21:36.488Z,25.05
2018-07-30T05:24:05.340Z,25.12
2018-07-30T05:26:34.267Z,25.20
2018-07-30T05:29:03.552Z,25.25
2018-07-30T05:31:32.689Z,25.27
2018-07-30T05:34:02.259Z,25.31
2018-07-30T05:36:31.521Z,25.36
2018-07-30T05:39:00.452Z,25.43
2018-07-30T05:41:29.641Z,25.50
2018-07-30T05:43:58.921Z,25.51
2018-07-30T05:46:28.378Z,25.54
2018-07-30T05:48:57.493Z,25.61
2018-07-30T05:51:26.690Z,25.62
2018-07-30T05:53:56.524Z,25.59
2018-07-30T05:56:25.185Z,25.57
2018-07-30T05:58:54.261Z,25.55
2018-07-30T06:01:23.397Z,25.53
2018-07-30T06:03:52.528Z,25.50
2018-07-30T06:06:21.733Z,25.48
2018-07-30T06:08:51.210Z,25.50
2018-07-30T06:11:20.481Z,25.53
2018-07-30T06:13:49.634Z,25.57
2018-07-30T06:16:18.828Z,25.59
2018-07-30T06:18:47.670Z,25.61
2018-07-30T06:21:16.785Z,25.66
2018-07-30T06:23:45.793Z,25.68
2018-07-30T06:26:14.495Z,25.70
2018-07-30T06:28:43.173Z,25.75
2018-07-30T06:31:12.503Z,25.78
2018-07-30T06:33:41.332Z,25.85
2018-07-30T06:36:10.618Z,25.93
2018-07-30T06:38:40.023Z,26.02
2018-07-30T06:41:09.884Z,26.09
2018-07-30T06:43:39.062Z,26.14
2018-07-30T06:46:08.065Z,26.21
2018-07-30T06:48:36.872Z,26.25
2018-07-30T06:51:06.204Z,26.26
2018-07-30T06:53:36.056Z,26.31
2018-07-30T06:56:04.768Z,26.34
2018-07-30T06:58:33.673Z,26.41
2018-07-30T07:01:02.725Z,26.45
2018-07-30T07:03:31.999Z,26.47
2018-07-30T07:06:02.059Z,26.47
2018-07-30T07:08:31.119Z,26.43
2018-07-30T07:11:00.421Z,26.38
2018-07-30T07:13:29.294Z,26.35
2018-07-30T07:15:58.242Z,26.40
2018-07-30T07:18:27.082Z,26.49
2018-07-30T07:20:56.315Z,26.57
2018-07-30T07:23:25.382Z,26.64
2018-07-30T07:25:54.653Z,26.70
2018-07-30T07:28:23.935Z,26.78
2018-07-30T07:30:53.201Z,26.88
2018-07-30T07:33:22.185Z,26.97
2018-07-30T07:35:51.181Z,27.08
2018-07-30T07:38:20.212Z,27.19
2018-07-30T07:40:48.981Z,27.24
2018-07-30T07:43:17.865Z,27.31
2018-07-30T07:45:46.754Z,27.33
2018-07-30T07:48:15.873Z,27.35
2018-07-30T07:50:44.879Z,27.38
2018-07-30T07:53:13.854Z,27.43
2018-07-30T07:55:42.666Z,27.49
2018-07-30T07:58:11.558Z,27.53
2018-07-30T08:00:40.475Z,27.58
2018-07-30T08:03:13.427Z,27.63
2018-07-30T08:05:42.187Z,27.67
2018-07-30T08:08:11.126Z,27.72
2018-07-30T08:10:40.512Z,27.68
2018-07-30T08:13:09.142Z,27.66
2018-07-30T08:15:38.307Z,27.69
2018-07-30T08:18:06.979Z,27.77
2018-07-30T08:20:36.714Z,27.83
2018-07-30T08:23:06.294Z,27.91
2018-07-30T08:25:35.476Z,27.98
2018-07-30T08:28:05.766Z,28.02
2018-07-30T08:30:39.857Z,28.01
2018-07-30T08:33:09.098Z,28.05
2018-07-30T08:35:38.815Z,28.09
2018-07-30T08:38:08.054Z,28.13
2018-07-30T08:40:36.892Z,28.16
2018-07-30T08:43:11.257Z,28.17
2018-07-30T08:45:40.389Z,28.23
2018-07-30T08:48:09.416Z,28.28
2018-07-30T08:50:38.228Z,28.28
2018-07-30T08:53:07.493Z,28.24
2018-07-30T08:55:36.418Z,28.30
2018-07-30T08:58:05.642Z,28.34
2018-07-30T09:00:34.950Z,28.33
2018-07-30T09:03:04.254Z,28.32
2018-07-30T09:05:33.549Z,28.39
2018-07-30T09:08:02.589Z,28.46
2018-07-30T09:10:31.872Z,28.57
2018-07-30T09:13:00.504Z,28.68
2018-07-30T09:15:29.325Z,28.77
2018-07-30T09:17:58.183Z,28.76
2018-07-30T09:20:27.217Z,28.79
2018-07-30T09:22:56.082Z,28.92
2018-07-30T09:25:26.158Z,29.02
2018-07-30T09:27:55.082Z,29.05
2018-07-30T09:30:24.091Z,29.06
2018-07-30T09:32:53.074Z,29.10
2018-07-30T09:35:22.257Z,29.12
2018-07-30T09:37:51.568Z,29.21
2018-07-30T09:40:20.621Z,29.36
2018-07-30T09:42:49.637Z,29.42
2018-07-30T09:45:18.737Z,29.55
2018-07-30T09:47:47.651Z,29.68
2018-07-30T09:50:16.891Z,29.67
2018-07-30T09:52:46.169Z,29.63
2018-07-30T09:55:15.426Z,29.74
2018-07-30T09:57:45.678Z,29.78
2018-07-30T10:00:14.572Z,29.82
2018-07-30T10:02:46.284Z,29.91
2018-07-30T10:05:15.558Z,30.05
2018-07-30T10:07:44.673Z,30.18
2018-07-30T10:10:14.016Z,30.19
2018-07-30T10:12:43.298Z,30.34
2018-07-30T10:15:12.200Z,30.43
2018-07-30T10:17:41.460Z,30.50
2018-07-30T10:20:10.805Z,30.60
2018-07-30T10:22:40.112Z,30.73
2018-07-30T10:25:09.490Z,30.74
2018-07-30T10:27:38.626Z,30.80
2018-07-30T10:30:09.285Z,30.85
2018-07-30T10:32:38.430Z,30.87
2018-07-30T10:35:07.424Z,30.99
2018-07-30T10:37:37.000Z,31.17
2018-07-30T10:40:06.204Z,31.29
2018-07-30T10:42:35.111Z,31.41
2018-07-30T10:45:03.849Z,31.50
2018-07-30T10:47:33.468Z,31.61
2018-07-30T10:50:03.218Z,31.71
2018-07-30T10:52:32.558Z,31.74
2018-07-30T10:55:01.684Z,31.79
2018-07-30T10:57:30.482Z,31.74
2018-07-30T10:59:59.445Z,31.71
2018-07-30T11:02:28.666Z,31.91
2018-07-30T11:04:57.482Z,32.08
2018-07-30T11:07:27.095Z,32.23
2018-07-30T11:09:56.300Z,32.24
2018-07-30T11:12:25.509Z,32.36
2018-07-30T11:14:54.610Z,32.51
2018-07-30T11:17:23.760Z,32.59
2018-07-30T11:19:53.053Z,32.54
2018-07-30T11:22:28.203Z,32.55
2018-07-30T11:25:03.555Z,32.54
2018-07-30T11:27:32.799Z,32.62
2018-07-30T11:30:02.207Z,32.77
2018-07-30T11:32:30.965Z,32.79
2018-07-30T11:34:59.649Z,32.83
2018-07-30T11:37:28.651Z,33.02
2018-07-30T11:39:57.910Z,33.26
2018-07-30T11:42:26.977Z,33.39
2018-07-30T11:44:56.245Z,33.43
2018-07-30T11:47:25.308Z,33.50
2018-07-30T11:49:53.968Z,33.59
2018-07-30T11:52:22.641Z,33.71
2018-07-30T11:54:51.162Z,33.77
2018-07-30T11:57:20.236Z,34.00
2018-07-30T11:59:49.354Z,34.11
2018-07-30T12:02:18.831Z,34.25
2018-07-30T12:04:47.661Z,34.32
2018-07-30T12:07:16.476Z,34.33
2018-07-30T12:09:45.273Z,34.31
2018-07-30T12:12:14.468Z,34.39
2018-07-30T12:14:43.776Z,34.41
2018-07-30T12:17:13.133Z,34.49
2018-07-30T12:19:41.975Z,34.72
2018-07-30T12:22:10.954Z,34.66
2018-07-30T12:24:39.842Z,34.67
2018-07-30T12:27:09.091Z,35.03
2018-07-30T12:29:38.226Z,35.98
2018-07-30T12:32:07.092Z,36.33
2018-07-30T12:34:36.473Z,35.77
2018-07-30T12:37:05.828Z,36.41
2018-07-30T12:39:34.676Z,37.10
2018-07-30T12:42:03.815Z,37.42
2018-07-30T12:44:32.876Z,37.50
2018-07-30T12:47:02.131Z,37.66
2018-07-30T12:49:31.194Z,37.67
2018-07-30T12:52:00.200Z,37.61
2018-07-30T12:54:29.058Z,37.24
2018-07-30T12:56:58.226Z,36.64
2018-07-30T12:59:27.176Z,36.34
2018-07-30T13:01:55.823Z,36.40
2018-07-30T13:04:24.839Z,36.44
2018-07-30T13:06:53.595Z,36.43
2018-07-30T13:09:22.437Z,36.37
2018-07-30T13:11:51.731Z,36.15
2018-07-30T13:14:21.103Z,35.81
2018-07-30T13:16:50.185Z,35.50
2018-07-30T13:19:19.327Z,35.18
2018-07-30T13:21:47.980Z,34.96
2018-07-30T13:24:16.981Z,34.74
2018-07-30T13:26:46.614Z,34.66
2018-07-30T13:29:15.722Z,34.69
2018-07-30T13:31:45.172Z,34.78
2018-07-30T13:34:14.658Z,34.78
2018-07-30T13:36:44.454Z,34.75
2018-07-30T13:39:13.597Z,34.68
2018-07-30T13:41:43.300Z,34.51
2018-07-30T13:44:12.590Z,34.54
2018-07-30T13:46:42.381Z,34.57
2018-07-30T13:49:11.286Z,34.46
2018-07-30T13:51:40.355Z,34.58
2018-07-30T13:54:09.237Z,34.68
2018-07-30T13:56:38.585Z,34.78
2018-07-30T13:59:07.282Z,34.71
2018-07-30T14:01:36.256Z,34.77
2018-07-30T14:04:05.116Z,34.79
2018-07-30T14:06:33.998Z,34.88
2018-07-30T14:09:03.354Z,34.91
2018-07-30T14:11:32.120Z,34.83
2018-07-30T14:14:00.804Z,34.75
2018-07-30T14:16:30.113Z,34.77
2018-07-30T14:18:59.821Z,34.88
2018-07-30T14:21:28.645Z,35.13
2018-07-30T14:23:57.991Z,35.21
2018-07-30T14:26:27.494Z,35.01
2018-07-30T14:28:56.677Z,34.72
2018-07-30T14:31:26.105Z,34.50
2018-07-30T14:33:56.120Z,34.52
2018-07-30T14:36:25.512Z,34.89
2018-07-30T14:38:54.334Z,35.42
2018-07-30T14:41:23.201Z,35.89
2018-07-30T14:43:52.177Z,36.19
2018-07-30T14:46:21.388Z,36.38
2018-07-30T14:48:55.255Z,36.53
2018-07-30T14:51:24.394Z,36.37
2018-07-30T14:53:53.574Z,36.24
2018-07-30T14:56:22.280Z,36.29
2018-07-30T14:58:51.173Z,36.49
2018-07-30T15:01:20.363Z,36.39
2018-07-30T15:03:49.433Z,36.43
2018-07-30T15:06:18.561Z,36.46
2018-07-30T15:08:47.840Z,36.47
2018-07-30T15:11:17.350Z,36.36
2018-07-30T15:13:46.366Z,36.15
2018-07-30T15:16:16.299Z,36.23
2018-07-30T15:18:45.601Z,36.38
2018-07-30T15:21:14.850Z,36.45
2018-07-30T15:23:45.092Z,36.46
2018-07-30T15:26:13.715Z,36.36
2018-07-30T15:28:42.485Z,36.44
2018-07-30T15:48:47.008Z,38.71
2018-07-30T15:51:16.518Z,39.25
2018-07-30T15:53:45.520Z,39.97
2018-07-30T15:56:14.318Z,40.26
2018-07-30T15:58:43.380Z,40.52
2018-07-30T16:01:12.487Z,40.29
2018-07-30T16:03:41.312Z,40.31
2018-07-30T16:06:10.149Z,40.28
2018-07-30T16:08:39.311Z,40.66
2018-07-30T16:11:08.588Z,40.83
2018-07-30T16:13:37.354Z,41.26
2018-07-30T16:16:06.902Z,41.61
2018-07-30T16:18:35.781Z,42.16
2018-07-30T16:21:04.564Z,42.66
2018-07-30T16:23:33.600Z,43.11
2018-07-30T16:26:02.518Z,43.68
2018-07-30T16:28:31.457Z,44.11
2018-07-30T16:31:00.115Z,43.71
2018-07-30T16:33:29.019Z,43.90
2018-07-30T16:35:58.248Z,43.45
2018-07-30T16:38:27.986Z,43.06
2018-07-30T16:40:57.524Z,43.07
2018-07-30T16:43:26.973Z,42.77
2018-07-30T16:45:55.828Z,41.32
2018-07-30T16:48:25.024Z,39.90
2018-07-30T16:50:54.105Z,38.94
2018-07-30T16:53:23.135Z,38.30
2018-07-30T16:55:52.186Z,37.73
2018-07-30T16:58:21.335Z,37.49
2018-07-30T17:00:50.829Z,37.06
2018-07-30T17:03:20.045Z,36.64
2018-07-30T17:05:48.742Z,36.30
2018-07-30T17:08:18.543Z,36.11
2018-07-30T17:10:48.277Z,35.82
2018-07-30T17:13:17.052Z,35.59
2018-07-30T17:15:46.039Z,35.41
2018-07-30T17:18:15.128Z,35.16
2018-07-30T17:20:44.556Z,34.94
2018-07-30T17:23:14.007Z,34.84
2018-07-30T17:25:44.089Z,34.82
2018-07-30T17:28:13.075Z,34.71
2018-07-30T17:30:42.730Z,34.51
2018-07-30T17:33:12.667Z,34.33
2018-07-30T17:35:42.174Z,34.13
2018-07-30T17:38:11.240Z,34.09
2018-07-30T17:40:40.767Z,34.12
2018-07-30T17:43:15.267Z,34.14
2018-07-30T17:45:45.927Z,34.11
2018-07-30T17:48:16.655Z,34.09
2018-07-30T17:50:46.768Z,34.08
2018-07-30T17:53:15.916Z,33.99
2018-07-30T17:55:45.455Z,33.94
2018-07-30T17:58:14.880Z,33.86
2018-07-30T18:00:44.285Z,33.84
2018-07-30T18:03:14.014Z,33.63
2018-07-30T18:05:43.260Z,33.53
2018-07-30T18:08:12.808Z,33.41
2018-07-30T18:10:42.538Z,33.26
2018-07-30T18:13:13.151Z,33.10
2018-07-30T18:15:42.650Z,32.98
2018-07-30T18:18:11.775Z,32.91
2018-07-30T18:20:40.680Z,32.86
2018-07-30T18:23:10.190Z,32.81
2018-07-30T18:25:39.637Z,32.84
2018-07-30T18:28:09.372Z,32.84
2018-07-30T18:30:38.818Z,32.80
2018-07-30T18:33:08.361Z,32.75
2018-07-30T18:35:37.461Z,32.67
2018-07-30T18:38:06.301Z,32.64
2018-07-30T18:40:36.080Z,32.62
2018-07-30T18:43:05.913Z,32.56
2018-07-30T18:45:35.298Z,32.48
2018-07-30T18:48:04.658Z,32.43
2018-07-30T18:50:33.669Z,32.34
2018-07-30T18:53:03.132Z,32.27
2018-07-30T18:55:32.325Z,32.20
2018-07-30T18:58:02.291Z,32.17
2018-07-30T19:00:31.588Z,32.10
2018-07-30T19:03:00.731Z,32.08
2018-07-30T19:05:31.846Z,32.01
2018-07-30T19:08:01.064Z,31.96
2018-07-30T19:10:30.672Z,31.91
2018-07-30T19:12:59.965Z,31.87
2018-07-30T19:15:29.450Z,31.83
2018-07-30T19:17:58.855Z,31.76
2018-07-30T19:20:29.085Z,31.71
2018-07-30T19:22:58.250Z,31.63
2018-07-30T19:25:27.699Z,31.55
2018-07-30T19:27:56.720Z,31.49
2018-07-30T19:30:26.294Z,31.36
2018-07-30T19:32:56.157Z,31.28
2018-07-30T19:35:25.971Z,31.24
2018-07-30T19:37:55.217Z,31.16
2018-07-30T19:40:24.803Z,31.07
2018-07-30T19:42:54.272Z,31.01
2018-07-30T19:45:23.928Z,30.93
2018-07-30T19:47:54.249Z,30.86
2018-07-30T19:50:23.704Z,30.78
2018-07-30T19:52:53.275Z,30.73
2018-07-30T19:55:22.116Z,30.68
2018-07-30T19:57:51.362Z,30.64
2018-07-30T20:00:19.961Z,30.55
2018-07-30T20:02:49.388Z,30.48
2018-07-30T20:05:18.023Z,30.41
2018-07-30T20:07:46.931Z,30.35
2018-07-30T20:10:15.636Z,30.30
2018-07-30T20:12:44.786Z,30.23
2018-07-30T20:15:14.040Z,30.15
2018-07-30T20:17:43.326Z,30.09
2018-07-30T20:20:13.917Z,30.02
2018-07-30T20:22:43.026Z,29.92
2018-07-30T20:25:12.750Z,29.83
2018-07-30T20:27:42.431Z,29.76
2018-07-30T20:30:11.131Z,29.62
2018-07-30T20:32:40.377Z,29.54
2018-07-30T20:35:09.447Z,29.51
2018-07-30T20:37:40.122Z,29.43
2018-07-30T20:40:09.402Z,29.46
2018-07-30T20:42:38.064Z,29.47
2018-07-30T20:45:06.822Z,29.39
2018-07-30T20:47:35.389Z,29.26
2018-07-30T20:50:04.137Z,29.21
2018-07-30T20:52:32.917Z,29.13
2018-07-30T20:55:01.710Z,29.12
2018-07-30T20:57:31.257Z,29.04
2018-07-30T21:00:01.076Z,28.96
2018-07-30T21:02:30.355Z,28.89
2018-07-30T21:04:59.049Z,28.83
2018-07-30T21:07:27.652Z,28.76
2018-07-30T21:09:56.227Z,28.70
2018-07-30T21:12:25.056Z,28.74
2018-07-30T21:14:53.723Z,28.78
2018-07-30T21:17:25.356Z,28.76
2018-07-30T21:19:54.720Z,28.73
2018-07-30T21:22:24.168Z,28.71
2018-07-30T21:24:52.952Z,28.67
2018-07-30T21:27:22.106Z,28.47
2018-07-30T21:29:50.765Z,28.41
2018-07-30T21:32:19.362Z,28.45
2018-07-30T21:34:47.900Z,28.39
2018-07-30T21:37:16.653Z,28.28
2018-07-30T21:39:45.325Z,28.29
2018-07-30T21:42:13.991Z,28.29
2018-07-30T21:44:42.784Z,28.18
2018-07-30T21:47:11.872Z,28.17
2018-07-30T21:49:40.894Z,28.15
2018-07-30T21:52:09.799Z,27.92
2018-07-30T21:54:38.538Z,27.67
2018-07-30T21:57:07.637Z,27.48
2018-07-30T21:59:36.349Z,27.43
2018-07-30T22:02:05.009Z,27.39
2018-07-30T22:04:33.946Z,27.37
2018-07-30T22:07:02.713Z,27.33
2018-07-30T22:09:31.953Z,27.23
2018-07-30T22:12:00.677Z,27.08
2018-07-30T22:14:29.173Z,26.97
2018-07-30T22:16:57.892Z,26.99
2018-07-30T22:19:26.773Z,26.78
2018-07-30T22:21:55.248Z,26.65
2018-07-30T22:24:23.743Z,26.49
2018-07-30T22:26:53.044Z,26.33
2018-07-30T22:29:21.610Z,26.26
2018-07-30T22:31:50.343Z,26.16
2018-07-30T22:34:19.624Z,25.86
2018-07-30T22:36:48.695Z,25.73
2018-07-30T22:39:17.149Z,25.76
2018-07-30T22:41:46.352Z,25.74
2018-07-30T22:44:15.259Z,25.71
2018-07-30T22:46:43.928Z,25.52
2018-07-30T22:49:13.324Z,25.28
2018-07-30T22:51:41.833Z,25.08
2018-07-30T22:54:11.111Z,24.90
2018-07-30T22:56:39.850Z,24.81
2018-07-30T22:59:08.496Z,24.72
2018-07-30T23:01:37.235Z,24.67
2018-07-30T23:04:05.895Z,24.84
2018-07-30T23:06:35.050Z,24.86
2018-07-30T23:46:00.633Z,23.93
2018-07-30T23:48:29.777Z,23.89
2018-07-30T23:50:59.058Z,23.87
2018-07-30T23:53:28.224Z,23.80
2018-07-30T23:55:57.567Z,23.77
2018-07-30T23:58:26.659Z,23.78
